Smithers Airport
CYYD : rendu visible

Aérodrome :











RETROUVEZ-NOUS SUR...

 
LOGIN :

S'inscrire | Disclaimer

   EN    FR    IT 

 









Légende :    VFR   VFR Marginal   IFR   IFR Intensif   IFR Très Intensif
Visi : 
Plafond : 
>= 8 km
>= 3000ft
5 à 8 km
1000 à 3000 ft
1500m à 5 km
500 à 1000 ft
800 à 1500m
200 à 500 ft
< 800m
< 200 ft
Symboles :   Orages  Brouillard  Fortes neiges  Fortes précipitations  Vent > 20 kt






- Altitude de l'aérodrome : 1712 ft
- Code IATA : YYD


CYYD - Smithers

DERNIER METAR :
  • 080000Z 34005KT 25SM FEW015 SCT045 BKN070 16/12 A2983 RMK SF1SC2CU3 SLP108 DENSITY ALT 2400FT

METARs EXPIRÉS :
  • 072300Z 06004KT 350V120 25SM FEW015 BKN040 17/11 A2981 RMK SF1SC5 SLP102 DENSITY ALT 2500FT
  • 072253Z 02005KT 350V070 25SM FEW015 BKN040 16/12 A2982 RMK SF1SC5 SLP103 DENSITY ALT 2400FT
  • 072201Z VRB03KT 25SM -RA BKN040 16/10 A2981 RMK SC7 SLP102 DENSITY ALT 2400FT
  • 072151Z 14004KT 100V260 25SM BKN040 17/10 A2981 RMK SC7 SLP101 DENSITY ALT 2500FT

TAF TAF CYYD
Valide du 07 à 19h jusqu'au 08 à 06h UTC


071838Z 0719/0806 16008KT P6SM SCT040 BKN060
TEMPO 0719/0802 P6SM -SHRA BKN040
PROB30 0722/0802 VRB15G25KT 4SM TSRA BKN020 OVC040CB
FM080200 32007KT P6SM VCSH SCT040 BKN060 RMK NXT FCST BY 080100Z
FIR CZVR / Amérique du Nord



MET'MAP, la Météo Aéronautique d'un coup d'oeil ! - Copyright ORBIFLY Décembre 2007 - Disclaimer

ORBIFLY MET'MAP TEAM :

Programmation & Développement : Alexandra Zaïnal
Sur une idée originale de : Baudouin d'Aumeries
Assistance à la programmation : Marc-Olivier Méhu
Soutien technique & logistique : Manuel Goepfert

Contact : metmap@orbifly.com




SOURCES & CREDITS :

   NOAA       Earth
Advisory